Time;durP1;ratioP1;P1;durP2;ratioP2;P2;SDS_P1;SDS_P2;PMS_P1;PMS_P2;Temp;Humidity;BMP_temperature;BMP_pressure;BME280_temperature;BME280_humidity;BME280_pressure;Samples;Min_cycle;Max_cycle;Signal;HPM_P1;HPM_P2
2022/02/16 00:02:08;;;;;;;;;;;3.40;94.80;;;;;;5063789;28;20236;-66
2022/02/16 00:04:34;;;;;;;;;;;3.40;94.80;;;;;;5063985;28;19909;-66
2022/02/16 00:07:00;;;;;;;;;;;3.50;94.70;;;;;;5064100;28;20024;-67
2022/02/16 00:09:26;;;;;;;;;;;3.50;94.70;;;;;;5064014;28;19984;-66
2022/02/16 00:11:51;;;;;;;;;;;3.50;94.40;;;;;;5063575;28;19908;-66
2022/02/16 00:14:17;;;;;;;;;;;3.60;94.30;;;;;;5063672;28;20215;-66
2022/02/16 00:16:43;;;;;;;;;;;3.60;94.30;;;;;;5063255;28;19970;-67
2022/02/16 00:19:08;;;;;;;;;;;3.60;94.20;;;;;;5063403;28;19948;-66
2022/02/16 00:21:34;;;;;;;;;;;3.70;94.10;;;;;;5063102;28;19908;-66
2022/02/16 00:24:00;;;;;;;;;;;3.70;94.00;;;;;;5063601;28;20073;-66
2022/02/16 00:26:25;;;;;;;;;;;3.70;94.10;;;;;;5063162;28;19916;-66
2022/02/16 00:28:51;;;;;;;;;;;3.70;93.80;;;;;;5063562;28;19908;-66
2022/02/16 00:31:18;;;;;;;;;;;3.70;93.70;;;;;;5062927;28;19908;-67
2022/02/16 00:33:43;;;;;;;;;;;3.70;93.60;;;;;;5063453;28;20085;-66
2022/02/16 00:36:09;;;;;;;;;;;3.70;93.60;;;;;;5063349;28;19915;-66
2022/02/16 00:38:35;;;;;;;;;;;3.70;93.80;;;;;;5063256;28;19916;-67
2022/02/16 00:41:00;;;;;;;;;;;3.60;93.80;;;;;;5062946;28;19909;-67
2022/02/16 00:43:26;;;;;;;;;;;3.70;93.70;;;;;;5063388;28;19909;-66
2022/02/16 00:45:52;;;;;;;;;;;3.60;93.80;;;;;;5062935;28;20188;-66
2022/02/16 00:48:17;;;;;;;;;;;3.50;93.90;;;;;;5063073;28;19908;-66
2022/02/16 00:50:43;;;;;;;;;;;3.50;94.00;;;;;;5061899;28;20004;-66
2022/02/16 00:53:09;;;;;;;;;;;3.50;94.00;;;;;;5063074;28;19915;-66
2022/02/16 00:55:35;;;;;;;;;;;3.50;94.00;;;;;;5062907;28;19909;-67
2022/02/16 00:58:05;;;;;;;;;;;3.50;94.00;;;;;;5062822;28;20348;-66
2022/02/16 01:00:31;;;;;;;;;;;3.50;94.00;;;;;;5061657;28;20107;-66
2022/02/16 01:02:57;;;;;;;;;;;3.60;94.00;;;;;;5062705;28;19909;-66
2022/02/16 01:05:23;;;;;;;;;;;3.60;93.90;;;;;;5062483;28;19932;-66
2022/02/16 01:07:49;;;;;;;;;;;3.60;93.80;;;;;;5061020;28;19978;-66
2022/02/16 01:10:14;;;;;;;;;;;3.60;93.80;;;;;;5061917;28;19931;-67
2022/02/16 01:12:40;;;;;;;;;;;3.60;93.70;;;;;;5062500;28;19909;-67
2022/02/16 01:15:06;;;;;;;;;;;3.60;93.80;;;;;;5061264;28;19913;-66
2022/02/16 01:17:32;;;;;;;;;;;3.60;93.80;;;;;;5062653;28;19974;-67
2022/02/16 01:19:58;;;;;;;;;;;3.50;93.80;;;;;;5062492;28;19921;-66
2022/02/16 01:22:23;;;;;;;;;;;3.50;93.80;;;;;;5061998;28;19976;-67
2022/02/16 01:24:49;;;;;;;;;;;3.50;93.90;;;;;;5062273;28;19908;-66
2022/02/16 01:27:15;;;;;;;;;;;3.50;93.90;;;;;;5062379;28;19947;-66
2022/02/16 01:29:40;;;;;;;;;;;3.50;94.00;;;;;;5062378;28;20187;-66
2022/02/16 01:32:06;;;;;;;;;;;3.50;93.70;;;;;;5061935;28;19917;-66
2022/02/16 01:34:32;;;;;;;;;;;3.50;93.80;;;;;;5062156;28;20087;-66
2022/02/16 01:36:58;;;;;;;;;;;3.40;93.80;;;;;;5061934;28;19908;-66
2022/02/16 01:39:23;;;;;;;;;;;3.40;93.90;;;;;;5061869;28;19917;-66
2022/02/16 01:41:52;;;;;;;;;;;3.40;94.00;;;;;;5061900;28;19946;-67
2022/02/16 01:44:24;;;;;;;;;;;3.40;94.00;;;;;;5061815;28;19936;-66
2022/02/16 01:46:59;;;;;;;;;;;3.40;94.00;;;;;;5062038;28;20088;-67
2022/02/16 01:49:24;;;;;;;;;;;3.30;94.00;;;;;;5062108;28;20004;-66
2022/02/16 01:51:50;;;;;;;;;;;3.30;93.90;;;;;;5060584;28;19912;-66
2022/02/16 01:54:16;;;;;;;;;;;3.30;93.80;;;;;;5062020;28;20129;-66
2022/02/16 01:56:47;;;;;;;;;;;3.40;93.90;;;;;;5061786;28;19913;-66
2022/02/16 01:59:19;;;;;;;;;;;3.30;93.80;;;;;;5061782;28;19924;-66
2022/02/16 02:01:45;;;;;;;;;;;3.30;93.70;;;;;;5061603;28;19936;-66
2022/02/16 02:04:11;;;;;;;;;;;3.40;93.70;;;;;;5061733;28;20253;-66
2022/02/16 02:06:37;;;;;;;;;;;3.40;93.40;;;;;;5061654;28;19936;-66
2022/02/16 02:09:02;;;;;;;;;;;3.40;93.40;;;;;;5061687;28;19920;-66
2022/02/16 02:11:28;;;;;;;;;;;3.50;93.30;;;;;;5061299;28;19908;-66
2022/02/16 02:13:58;;;;;;;;;;;3.50;93.30;;;;;;5061767;28;19940;-66
2022/02/16 02:16:24;;;;;;;;;;;3.50;93.30;;;;;;5061405;28;19927;-66
2022/02/16 02:18:50;;;;;;;;;;;3.50;93.10;;;;;;5061340;28;20200;-66
2022/02/16 02:21:16;;;;;;;;;;;3.50;93.10;;;;;;5061059;28;19909;-66
2022/02/16 02:23:42;;;;;;;;;;;3.50;93.00;;;;;;5061532;28;20226;-66
2022/02/16 02:26:07;;;;;;;;;;;3.50;93.00;;;;;;5061465;28;19909;-66
2022/02/16 02:28:33;;;;;;;;;;;3.50;93.00;;;;;;5061472;28;19909;-66
2022/02/16 02:30:59;;;;;;;;;;;3.50;93.10;;;;;;5061301;28;20096;-66
2022/02/16 02:33:25;;;;;;;;;;;3.50;93.00;;;;;;5061472;28;19915;-66
2022/02/16 02:35:52;;;;;;;;;;;3.50;93.10;;;;;;5061471;28;19913;-66
2022/02/16 02:38:17;;;;;;;;;;;3.50;93.10;;;;;;5061481;28;20204;-66
2022/02/16 02:40:43;;;;;;;;;;;3.40;93.10;;;;;;5061238;28;19936;-66
2022/02/16 02:43:09;;;;;;;;;;;3.40;93.20;;;;;;5061478;28;20083;-66
2022/02/16 02:45:34;;;;;;;;;;;3.40;93.10;;;;;;5061362;28;19916;-66
2022/02/16 02:48:00;;;;;;;;;;;3.40;93.00;;;;;;5061333;28;19909;-66
2022/02/16 02:50:26;;;;;;;;;;;3.40;93.10;;;;;;5060455;28;19940;-66
2022/02/16 02:52:51;;;;;;;;;;;3.50;93.10;;;;;;5060849;28;20096;-66
2022/02/16 02:55:17;;;;;;;;;;;3.50;93.00;;;;;;5061379;28;19955;-66
2022/02/16 02:57:43;;;;;;;;;;;3.50;92.90;;;;;;5061407;28;19909;-66
2022/02/16 03:00:10;;;;;;;;;;;3.50;92.90;;;;;;5061352;28;19920;-67
2022/02/16 03:02:36;;;;;;;;;;;3.60;92.80;;;;;;5061046;28;19913;-66
2022/02/16 03:05:02;;;;;;;;;;;3.60;92.70;;;;;;5061198;28;19909;-66
2022/02/16 03:07:28;;;;;;;;;;;3.60;92.70;;;;;;5061057;28;19909;-66
2022/02/16 03:09:54;;;;;;;;;;;3.70;92.50;;;;;;5061221;28;19920;-66
2022/02/16 03:12:19;;;;;;;;;;;3.70;92.50;;;;;;5060980;28;20000;-66
2022/02/16 03:14:45;;;;;;;;;;;3.70;92.40;;;;;;5060989;28;19988;-66
2022/02/16 03:17:11;;;;;;;;;;;3.80;92.20;;;;;;5061180;28;20205;-66
2022/02/16 03:19:36;;;;;;;;;;;3.70;92.30;;;;;;5059380;28;19912;-66
2022/02/16 03:22:03;;;;;;;;;;;3.80;92.30;;;;;;5060522;28;19909;-66
2022/02/16 03:24:29;;;;;;;;;;;3.90;92.10;;;;;;5061063;28;19908;-66
2022/02/16 03:26:54;;;;;;;;;;;3.90;92.10;;;;;;5061085;28;19908;-66
2022/02/16 03:29:20;;;;;;;;;;;3.90;92.00;;;;;;5060959;28;20103;-66
2022/02/16 03:31:47;;;;;;;;;;;4.00;91.80;;;;;;5061072;28;19946;-66
2022/02/16 03:34:13;;;;;;;;;;;4.00;91.80;;;;;;5064609;28;19909;-66
2022/02/16 03:36:38;;;;;;;;;;;4.10;91.70;;;;;;5064274;28;19908;-66
2022/02/16 03:39:04;;;;;;;;;;;4.10;91.60;;;;;;5064510;28;19919;-66
2022/02/16 03:41:30;;;;;;;;;;;4.00;91.50;;;;;;5064126;28;19916;-66
2022/02/16 03:43:55;;;;;;;;;;;4.10;91.60;;;;;;5064403;28;19919;-67
2022/02/16 03:46:21;;;;;;;;;;;4.10;91.70;;;;;;5064088;28;19972;-66
2022/02/16 03:48:47;;;;;;;;;;;4.20;91.60;;;;;;5064233;28;19923;-66
2022/02/16 03:51:13;;;;;;;;;;;4.20;91.60;;;;;;5063063;28;19920;-66
2022/02/16 03:53:39;;;;;;;;;;;4.20;91.70;;;;;;5064273;28;19931;-66
2022/02/16 03:56:05;;;;;;;;;;;4.20;91.70;;;;;;5064196;28;20116;-66
2022/02/16 03:58:31;;;;;;;;;;;4.20;91.70;;;;;;5064148;28;19913;-67
2022/02/16 04:00:56;;;;;;;;;;;4.30;91.70;;;;;;5063723;28;19909;-66
2022/02/16 04:03:22;;;;;;;;;;;4.20;91.80;;;;;;5063942;28;19909;-66
2022/02/16 04:05:48;;;;;;;;;;;4.30;91.80;;;;;;5064002;28;19908;-66
2022/02/16 04:08:13;;;;;;;;;;;4.30;91.80;;;;;;5063652;28;19916;-66
2022/02/16 04:10:40;;;;;;;;;;;4.30;92.20;;;;;;5063796;28;19913;-66
2022/02/16 04:13:06;;;;;;;;;;;4.30;92.10;;;;;;5063832;28;19916;-66
2022/02/16 04:15:33;;;;;;;;;;;4.30;92.20;;;;;;5097747;22;19919;-67
2022/02/16 04:17:59;;;;;;;;;;;4.30;92.30;;;;;;5125535;28;19908;-67
2022/02/16 04:20:25;;;;;;;;;;;4.40;92.30;;;;;;5125689;28;19907;-67
2022/02/16 04:22:51;;;;;;;;;;;4.40;92.20;;;;;;5109399;28;19945;-67
2022/02/16 04:25:17;;;;;;;;;;;4.40;92.40;;;;;;5104979;28;19981;-67
2022/02/16 04:27:43;;;;;;;;;;;4.40;92.50;;;;;;5103899;28;19915;-66
2022/02/16 04:30:09;;;;;;;;;;;4.40;92.50;;;;;;5104792;28;19939;-67
2022/02/16 04:32:35;;;;;;;;;;;4.40;92.70;;;;;;5104723;28;19954;-67
2022/02/16 04:35:01;;;;;;;;;;;4.40;92.80;;;;;;5104899;28;19908;-67
2022/02/16 04:37:26;;;;;;;;;;;4.40;92.90;;;;;;5104881;28;20106;-67
2022/02/16 04:39:52;;;;;;;;;;;4.40;92.90;;;;;;5104661;28;19912;-67
2022/02/16 04:42:18;;;;;;;;;;;4.40;92.70;;;;;;5104446;28;19939;-67
2022/02/16 04:44:44;;;;;;;;;;;4.40;93.10;;;;;;5103582;28;19961;-67
2022/02/16 04:47:09;;;;;;;;;;;4.40;93.10;;;;;;5104406;28;19915;-68
2022/02/16 04:49:35;;;;;;;;;;;4.40;93.20;;;;;;5104367;28;20198;-67
2022/02/16 04:52:01;;;;;;;;;;;4.40;93.10;;;;;;5103624;28;19967;-67
2022/02/16 04:54:26;;;;;;;;;;;4.40;93.30;;;;;;5103164;28;20201;-67
2022/02/16 04:56:52;;;;;;;;;;;4.40;93.40;;;;;;5104443;28;19940;-67
2022/02/16 04:59:18;;;;;;;;;;;4.40;93.30;;;;;;5104386;28;19912;-68
2022/02/16 05:01:43;;;;;;;;;;;4.40;93.70;;;;;;5103942;28;19919;-67
2022/02/16 05:04:09;;;;;;;;;;;4.40;93.60;;;;;;5104381;28;19936;-67
2022/02/16 05:06:37;;;;;;;;;;;4.40;93.70;;;;;;5104290;28;19908;-67
2022/02/16 05:09:06;;;;;;;;;;;4.40;93.60;;;;;;5104255;28;20344;-68
2022/02/16 05:11:32;;;;;;;;;;;4.30;93.90;;;;;;5102805;28;20498;-68
2022/02/16 05:13:58;;;;;;;;;;;4.30;94.20;;;;;;5104124;28;19912;-67
2022/02/16 05:16:24;;;;;;;;;;;4.30;94.20;;;;;;5102598;28;19912;-68
2022/02/16 05:18:50;;;;;;;;;;;4.30;94.30;;;;;;5104013;28;19919;-67
2022/02/16 05:21:15;;;;;;;;;;;4.30;94.60;;;;;;5103542;28;19908;-68
2022/02/16 05:23:41;;;;;;;;;;;4.30;94.70;;;;;;5104008;28;20259;-67
2022/02/16 05:26:07;;;;;;;;;;;4.30;94.90;;;;;;5103835;28;19935;-61
2022/02/16 05:28:33;;;;;;;;;;;4.30;95.00;;;;;;5103894;28;19915;-61
2022/02/16 05:30:58;;;;;;;;;;;4.30;94.90;;;;;;5103473;28;20091;-61
2022/02/16 05:33:24;;;;;;;;;;;4.30;94.80;;;;;;5103790;28;19936;-66
2022/02/16 05:35:50;;;;;;;;;;;4.30;95.20;;;;;;5119842;28;19915;-66
2022/02/16 05:38:15;;;;;;;;;;;4.20;95.10;;;;;;5123709;28;19957;-65
2022/02/16 05:40:43;;;;;;;;;;;4.20;95.00;;;;;;5123693;28;19982;-66
2022/02/16 05:43:13;;;;;;;;;;;4.30;95.10;;;;;;5123957;28;19914;-66
2022/02/16 05:45:42;;;;;;;;;;;4.30;95.30;;;;;;5123536;28;20195;-65
2022/02/16 05:48:07;;;;;;;;;;;4.30;95.40;;;;;;5123172;28;20248;-65
2022/02/16 05:50:33;;;;;;;;;;;4.30;95.50;;;;;;5123688;28;19916;-66
2022/02/16 05:52:59;;;;;;;;;;;4.30;95.30;;;;;;5091527;28;19908;-65
2022/02/16 05:55:25;;;;;;;;;;;4.30;95.50;;;;;;5082716;28;19917;-65
2022/02/16 05:57:50;;;;;;;;;;;4.20;95.70;;;;;;5082883;28;19915;-65
2022/02/16 06:00:16;;;;;;;;;;;4.20;95.80;;;;;;5082969;28;20236;-64
2022/02/16 06:02:42;;;;;;;;;;;4.20;95.70;;;;;;5082960;28;19908;-66
2022/02/16 06:05:08;;;;;;;;;;;4.20;95.70;;;;;;5083139;28;19912;-66
2022/02/16 06:07:34;;;;;;;;;;;4.20;95.70;;;;;;5098650;28;20153;-66
2022/02/16 06:09:59;;;;;;;;;;;4.20;95.80;;;;;;5082904;28;20219;-65
2022/02/16 06:12:25;;;;;;;;;;;4.20;95.70;;;;;;5098413;28;20084;-65
2022/02/16 06:14:51;;;;;;;;;;;4.20;95.60;;;;;;5082858;28;19958;-66
2022/02/16 06:17:16;;;;;;;;;;;4.20;95.60;;;;;;5083083;28;20187;-65
2022/02/16 06:19:42;;;;;;;;;;;4.20;95.60;;;;;;5082713;28;19928;-66
2022/02/16 06:22:08;;;;;;;;;;;4.20;95.40;;;;;;5082478;28;19908;-65
2022/02/16 06:24:34;;;;;;;;;;;4.20;95.60;;;;;;5082853;28;19908;-66
2022/02/16 06:27:00;;;;;;;;;;;4.20;95.70;;;;;;5082750;28;19953;-66
2022/02/16 06:29:26;;;;;;;;;;;4.20;95.60;;;;;;5082754;28;19908;-65
2022/02/16 06:31:51;;;;;;;;;;;4.20;95.60;;;;;;5082159;28;19908;-65
2022/02/16 06:34:17;;;;;;;;;;;4.20;95.40;;;;;;5082782;28;20233;-65
2022/02/16 06:36:43;;;;;;;;;;;4.20;95.50;;;;;;5082547;28;19939;-66
2022/02/16 06:39:08;;;;;;;;;;;4.30;95.70;;;;;;5082525;28;20118;-66
2022/02/16 06:41:35;;;;;;;;;;;4.20;95.60;;;;;;5082254;28;19909;-65
2022/02/16 06:44:00;;;;;;;;;;;4.30;95.60;;;;;;5082735;28;19915;-65
2022/02/16 06:46:26;;;;;;;;;;;4.30;95.50;;;;;;5082103;28;19908;-66
2022/02/16 06:48:52;;;;;;;;;;;4.30;95.10;;;;;;5082574;28;19909;-66
2022/02/16 06:51:18;;;;;;;;;;;4.30;95.30;;;;;;5082167;28;19908;-65
2022/02/16 06:53:44;;;;;;;;;;;4.30;95.30;;;;;;5094170;28;19915;-66
2022/02/16 06:56:10;;;;;;;;;;;4.40;95.30;;;;;;5084738;28;19947;-65
2022/02/16 06:58:36;;;;;;;;;;;4.40;95.20;;;;;;5102714;28;19912;-65
2022/02/16 07:01:01;;;;;;;;;;;4.40;94.90;;;;;;5102102;28;19915;-68
2022/02/16 07:03:27;;;;;;;;;;;4.40;95.00;;;;;;5102629;28;19912;-66
2022/02/16 07:05:53;;;;;;;;;;;4.40;95.00;;;;;;5102541;28;19908;-65
2022/02/16 07:08:18;;;;;;;;;;;4.40;95.00;;;;;;5105433;28;20160;-65
2022/02/16 07:10:46;;;;;;;;;;;4.40;95.10;;;;;;5106272;28;19908;-65
2022/02/16 07:13:12;;;;;;;;;;;4.50;95.10;;;;;;5106566;28;19908;-66
2022/02/16 07:15:38;;;;;;;;;;;4.50;95.10;;;;;;5105898;28;20213;-66
2022/02/16 07:18:03;;;;;;;;;;;4.50;94.90;;;;;;5105163;28;20092;-66
2022/02/16 07:20:29;;;;;;;;;;;4.60;94.50;;;;;;5106222;28;19916;-65
2022/02/16 07:22:55;;;;;;;;;;;4.60;94.50;;;;;;5105996;28;19908;-66
2022/02/16 07:25:21;;;;;;;;;;;4.50;94.60;;;;;;5105418;28;19908;-65
2022/02/16 07:27:46;;;;;;;;;;;4.60;94.50;;;;;;5106117;28;20249;-66
2022/02/16 07:30:13;;;;;;;;;;;4.60;94.30;;;;;;5106021;28;19930;-66
2022/02/16 07:32:40;;;;;;;;;;;4.70;94.20;;;;;;5105707;28;19952;-65
2022/02/16 07:35:06;;;;;;;;;;;4.70;94.20;;;;;;5106021;28;19908;-66
2022/02/16 07:37:32;;;;;;;;;;;4.70;94.10;;;;;;5105974;28;20115;-65
2022/02/16 07:39:59;;;;;;;;;;;4.70;94.00;;;;;;5105993;28;19983;-65
2022/02/16 07:42:28;;;;;;;;;;;4.80;94.00;;;;;;5105626;28;19915;-65
2022/02/16 07:44:54;;;;;;;;;;;4.80;93.90;;;;;;5105824;28;19943;-66
2022/02/16 07:47:20;;;;;;;;;;;4.80;93.60;;;;;;5105758;28;19916;-66
2022/02/16 07:49:46;;;;;;;;;;;4.90;93.80;;;;;;5105782;28;19975;-66
2022/02/16 07:52:12;;;;;;;;;;;4.90;93.60;;;;;;5105484;28;19915;-66
2022/02/16 07:54:37;;;;;;;;;;;4.90;93.60;;;;;;5104577;28;19985;-65
2022/02/16 07:57:03;;;;;;;;;;;5.00;93.50;;;;;;5105587;28;19975;-66
2022/02/16 07:59:29;;;;;;;;;;;5.00;93.40;;;;;;5105661;28;19912;-66
2022/02/16 08:01:56;;;;;;;;;;;5.00;93.50;;;;;;5105471;28;19915;-66
2022/02/16 08:04:23;;;;;;;;;;;5.10;93.40;;;;;;5105694;28;19953;-65
2022/02/16 08:06:49;;;;;;;;;;;5.10;93.30;;;;;;5105946;28;19922;-66
2022/02/16 08:09:15;;;;;;;;;;;5.10;93.20;;;;;;5104616;28;20182;-66
2022/02/16 08:11:42;;;;;;;;;;;5.20;93.10;;;;;;5105319;28;20199;-69
2022/02/16 08:14:08;;;;;;;;;;;5.30;93.00;;;;;;5105719;28;19923;-64
2022/02/16 08:16:34;;;;;;;;;;;5.30;92.90;;;;;;5105388;28;19927;-65
2022/02/16 08:19:00;;;;;;;;;;;5.30;92.70;;;;;;5105634;28;19912;-66
2022/02/16 08:21:26;;;;;;;;;;;5.30;92.80;;;;;;5104166;28;19957;-66
2022/02/16 08:23:51;;;;;;;;;;;5.40;93.00;;;;;;5105357;28;20241;-66
2022/02/16 08:26:17;;;;;;;;;;;5.40;92.70;;;;;;5105399;28;19912;-66
2022/02/16 08:28:43;;;;;;;;;;;5.50;92.80;;;;;;5105335;27;20122;-66
2022/02/16 08:31:09;;;;;;;;;;;5.50;92.70;;;;;;5105134;28;19914;-66
2022/02/16 08:33:34;;;;;;;;;;;5.50;92.80;;;;;;5105195;28;19908;-65
2022/02/16 08:36:00;;;;;;;;;;;5.50;92.80;;;;;;5104954;28;19912;-65
2022/02/16 08:38:26;;;;;;;;;;;5.60;92.80;;;;;;5104675;28;19912;-66
2022/02/16 08:40:51;;;;;;;;;;;5.60;92.40;;;;;;5104890;28;19908;-66
2022/02/16 08:43:17;;;;;;;;;;;5.70;92.30;;;;;;5104952;28;19916;-66
2022/02/16 08:45:43;;;;;;;;;;;5.70;92.50;;;;;;5104846;28;19975;-65
2022/02/16 08:48:08;;;;;;;;;;;5.80;92.40;;;;;;5104883;28;19914;-64
2022/02/16 08:50:34;;;;;;;;;;;5.90;92.10;;;;;;5103562;28;20274;-64
2022/02/16 08:53:00;;;;;;;;;;;6.00;92.20;;;;;;5103499;28;19915;-66
2022/02/16 08:55:25;;;;;;;;;;;6.00;92.10;;;;;;5104782;28;19914;-66
2022/02/16 08:57:51;;;;;;;;;;;6.00;92.00;;;;;;5103415;28;19908;-66
2022/02/16 09:00:17;;;;;;;;;;;6.00;92.20;;;;;;5104575;28;20207;-65
2022/02/16 09:02:43;;;;;;;;;;;6.10;92.10;;;;;;5104343;28;19971;-66
2022/02/16 09:05:08;;;;;;;;;;;6.20;92.00;;;;;;5104481;28;19919;-66
2022/02/16 09:07:34;;;;;;;;;;;6.20;91.80;;;;;;5104659;28;19931;-66
2022/02/16 09:10:02;;;;;;;;;;;6.20;91.70;;;;;;5104208;28;20087;-66
2022/02/16 09:12:28;;;;;;;;;;;6.30;92.00;;;;;;5086427;28;19916;-65
2022/02/16 09:14:54;;;;;;;;;;;6.30;91.80;;;;;;5104120;28;19946;-66
2022/02/16 09:17:20;;;;;;;;;;;6.30;91.50;;;;;;5104458;28;19939;-65
2022/02/16 09:19:45;;;;;;;;;;;6.40;91.60;;;;;;5104020;28;19969;-65
2022/02/16 09:22:14;;;;;;;;;;;6.40;91.80;;;;;;5103820;28;19908;-66
2022/02/16 09:24:40;;;;;;;;;;;6.40;92.00;;;;;;5103862;28;19915;-65
2022/02/16 09:27:06;;;;;;;;;;;6.40;91.40;;;;;;5103383;28;19916;-64
2022/02/16 09:29:32;;;;;;;;;;;6.40;91.90;;;;;;5103409;28;19954;-66
2022/02/16 09:31:57;;;;;;;;;;;6.40;91.70;;;;;;5103859;28;19908;-65
2022/02/16 09:34:23;;;;;;;;;;;6.50;92.00;;;;;;5104010;28;19908;-66
2022/02/16 09:36:49;;;;;;;;;;;6.60;91.70;;;;;;5104020;28;19977;-65
2022/02/16 09:39:14;;;;;;;;;;;6.60;91.80;;;;;;5085721;28;19912;-65
2022/02/16 09:41:44;;;;;;;;;;;6.80;91.90;;;;;;5103356;28;19908;-65
2022/02/16 09:44:13;;;;;;;;;;;6.80;92.10;;;;;;5104462;28;20162;-66
2022/02/16 09:46:39;;;;;;;;;;;6.80;92.40;;;;;;5102942;28;19923;-65
2022/02/16 09:49:05;;;;;;;;;;;6.80;92.50;;;;;;5104244;28;19908;-66
2022/02/16 09:51:30;;;;;;;;;;;6.80;92.30;;;;;;5104601;28;19946;-66
2022/02/16 09:53:56;;;;;;;;;;;6.80;92.60;;;;;;5103147;28;19908;-65
2022/02/16 09:56:22;;;;;;;;;;;6.80;92.70;;;;;;5103284;28;19908;-65
2022/02/16 09:58:49;;;;;;;;;;;6.80;93.30;;;;;;5103130;28;19957;-65
2022/02/16 10:01:17;;;;;;;;;;;6.80;92.90;;;;;;5103690;28;19975;-66
2022/02/16 10:04:05;;;;;;;;;;;6.80;92.90;;;;;;5103335;28;19908;-66
2022/02/16 10:06:35;;;;;;;;;;;6.80;92.90;;;;;;5103308;28;19953;-66
2022/02/16 10:09:01;;;;;;;;;;;6.80;93.00;;;;;;5103077;28;20114;-66
2022/02/16 10:11:26;;;;;;;;;;;6.90;92.90;;;;;;5102933;28;19940;-64
2022/02/16 10:13:53;;;;;;;;;;;6.90;92.70;;;;;;5119148;28;19908;-66
2022/02/16 10:16:31;;;;;;;;;;;6.90;93.00;;;;;;5124713;22;19920;-64
2022/02/16 10:19:00;;;;;;;;;;;7.00;93.00;;;;;;5122789;28;19912;-65
2022/02/16 10:21:25;;;;;;;;;;;7.00;93.10;;;;;;5121174;28;20210;-62
2022/02/16 10:23:52;;;;;;;;;;;7.20;92.90;;;;;;5122568;28;19982;-63
2022/02/16 10:26:18;;;;;;;;;;;7.30;92.70;;;;;;5122215;28;19912;-63
2022/02/16 10:28:46;;;;;;;;;;;7.40;92.70;;;;;;5122305;28;19943;-63
2022/02/16 10:31:11;;;;;;;;;;;7.50;92.90;;;;;;5121725;28;19916;-63
2022/02/16 10:33:41;;;;;;;;;;;7.50;92.20;;;;;;5122037;28;19915;-63
2022/02/16 10:36:19;;;;;;;;;;;7.60;92.50;;;;;;5122138;28;19911;-63
2022/02/16 10:39:00;;;;;;;;;;;7.60;92.70;;;;;;5121862;28;19911;-64
2022/02/16 10:41:27;;;;;;;;;;;7.70;92.70;;;;;;5123341;28;19939;-63
2022/02/16 10:43:53;;;;;;;;;;;7.80;92.60;;;;;;5126320;28;20173;-63
2022/02/16 10:46:28;;;;;;;;;;;7.90;92.00;;;;;;5117497;28;19915;-63
2022/02/16 10:49:07;;;;;;;;;;;8.00;92.60;;;;;;5084856;28;20163;-63
2022/02/16 10:51:33;;;;;;;;;;;8.00;92.90;;;;;;5084293;28;20184;-63
2022/02/16 10:54:16;;;;;;;;;;;8.00;93.00;;;;;;5084806;28;19916;-63
2022/02/16 10:56:43;;;;;;;;;;;8.00;93.20;;;;;;5085355;28;19924;-63
2022/02/16 10:59:09;;;;;;;;;;;8.00;93.20;;;;;;5085049;28;19993;-63
2022/02/16 11:01:35;;;;;;;;;;;8.00;93.40;;;;;;5083858;28;19908;-63
2022/02/16 11:04:06;;;;;;;;;;;7.90;93.50;;;;;;5085103;28;19943;-63
2022/02/16 11:06:33;;;;;;;;;;;7.90;93.50;;;;;;5083797;28;19909;-63
2022/02/16 11:08:59;;;;;;;;;;;8.00;93.60;;;;;;5083649;28;19908;-63
2022/02/16 11:11:27;;;;;;;;;;;8.00;93.60;;;;;;5083649;28;19954;-63
2022/02/16 11:13:55;;;;;;;;;;;8.10;93.50;;;;;;5083624;28;19980;-63
2022/02/16 11:16:20;;;;;;;;;;;8.10;93.40;;;;;;5067027;28;19912;-63
2022/02/16 11:18:48;;;;;;;;;;;8.10;93.50;;;;;;5083512;28;19993;-63
2022/02/16 11:21:18;;;;;;;;;;;8.10;93.10;;;;;;5084593;28;19931;-63
2022/02/16 11:23:44;;;;;;;;;;;8.20;93.30;;;;;;5084730;28;19946;-63
2022/02/16 11:26:41;;;;;;;;;;;8.20;93.00;;;;;;5084492;28;19908;-63
2022/02/16 11:29:25;;;;;;;;;;;8.30;92.50;;;;;;5084763;28;20121;-63
2022/02/16 11:31:51;;;;;;;;;;;8.30;92.80;;;;;;5084180;28;19974;-63
2022/02/16 11:34:21;;;;;;;;;;;8.30;92.90;;;;;;5084490;28;19928;-63
2022/02/16 11:36:52;;;;;;;;;;;8.40;93.10;;;;;;5084263;28;19908;-63
2022/02/16 11:39:48;;;;;;;;;;;8.40;92.90;;;;;;5084266;28;20014;-63
2022/02/16 11:42:22;;;;;;;;;;;8.40;92.70;;;;;;5084199;28;20245;-63
2022/02/16 11:44:50;;;;;;;;;;;8.40;92.80;;;;;;5084527;28;19908;-63
2022/02/16 11:47:34;;;;;;;;;;;8.40;93.00;;;;;;5084706;28;20138;-63
2022/02/16 11:50:09;;;;;;;;;;;8.40;92.90;;;;;;5084431;28;19909;-63
2022/02/16 11:52:38;;;;;;;;;;;8.50;93.00;;;;;;5083424;28;20164;-63
2022/02/16 11:55:20;;;;;;;;;;;8.50;93.40;;;;;;5083556;28;20007;-63
2022/02/16 11:57:55;;;;;;;;;;;8.50;93.70;;;;;;5083093;28;19909;-63
2022/02/16 12:00:43;;;;;;;;;;;8.50;93.80;;;;;;5084423;28;20244;-63
2022/02/16 12:03:10;;;;;;;;;;;8.50;94.00;;;;;;5084117;28;20112;-63
2022/02/16 12:06:00;;;;;;;;;;;8.50;93.90;;;;;;5083957;28;19971;-63
2022/02/16 12:08:37;;;;;;;;;;;8.50;94.30;;;;;;5083746;28;19919;-63
2022/02/16 12:11:12;;;;;;;;;;;8.50;94.50;;;;;;5083389;28;19914;-63
2022/02/16 12:13:40;;;;;;;;;;;8.50;95.00;;;;;;5083628;28;19940;-63
2022/02/16 12:16:08;;;;;;;;;;;8.50;95.10;;;;;;5082169;28;19912;-63
2022/02/16 12:18:34;;;;;;;;;;;8.50;95.50;;;;;;5083627;28;19943;-63
2022/02/16 12:21:00;;;;;;;;;;;8.50;95.50;;;;;;5083417;28;19983;-63
2022/02/16 12:23:27;;;;;;;;;;;8.50;95.80;;;;;;5083591;28;19916;-63
2022/02/16 12:26:04;;;;;;;;;;;8.50;95.60;;;;;;5083251;28;19909;-64
2022/02/16 12:28:29;;;;;;;;;;;8.50;95.80;;;;;;5083668;28;19916;-63
2022/02/16 12:30:55;;;;;;;;;;;8.50;95.60;;;;;;5083341;28;19917;-63
2022/02/16 12:33:23;;;;;;;;;;;8.50;95.90;;;;;;5083450;28;20000;-63
2022/02/16 12:35:49;;;;;;;;;;;8.50;96.00;;;;;;5081953;28;20115;-63
2022/02/16 12:38:24;;;;;;;;;;;8.50;95.90;;;;;;5083343;28;19908;-63
2022/02/16 12:40:50;;;;;;;;;;;8.60;95.80;;;;;;5082827;28;19909;-63
2022/02/16 12:43:16;;;;;;;;;;;8.60;95.70;;;;;;5083303;28;19962;-63
2022/02/16 12:45:41;;;;;;;;;;;8.70;95.80;;;;;;5083331;28;19908;-63
2022/02/16 12:48:09;;;;;;;;;;;8.80;95.70;;;;;;5083143;28;19954;-63
2022/02/16 12:50:35;;;;;;;;;;;8.70;95.90;;;;;;5083093;28;19943;-63
2022/02/16 12:53:02;;;;;;;;;;;8.70;95.70;;;;;;5083130;28;19935;-63
2022/02/16 12:55:28;;;;;;;;;;;8.70;95.50;;;;;;5082249;28;19908;-63
2022/02/16 12:57:54;;;;;;;;;;;8.70;95.80;;;;;;5082992;28;19931;-63
2022/02/16 13:03:07;;;;;;;;;;;8.60;96.10;;;;;;5082872;28;19943;-64
2022/02/16 13:05:41;;;;;;;;;;;8.60;96.50;;;;;;5081883;28;20092;-63
2022/02/16 13:08:07;;;;;;;;;;;8.60;96.40;;;;;;5082746;28;19912;-64
2022/02/16 13:10:34;;;;;;;;;;;8.50;96.80;;;;;;5081148;28;19970;-63
2022/02/16 13:13:12;;;;;;;;;;;8.60;96.80;;;;;;5081444;28;19909;-63
2022/02/16 13:15:39;;;;;;;;;;;8.60;97.00;;;;;;5081221;28;19908;-63
2022/02/16 13:18:05;;;;;;;;;;;8.60;97.00;;;;;;5082256;28;20192;-64
2022/02/16 13:20:35;;;;;;;;;;;8.60;97.10;;;;;;5064535;28;19958;-63
2022/02/16 13:23:05;;;;;;;;;;;8.60;97.10;;;;;;5081397;28;19980;-63
2022/02/16 13:25:39;;;;;;;;;;;8.60;97.00;;;;;;5080990;28;19979;-63
2022/02/16 13:28:06;;;;;;;;;;;8.70;96.70;;;;;;5082584;28;19919;-64
2022/02/16 13:30:33;;;;;;;;;;;8.70;96.80;;;;;;5080596;28;20138;-63
2022/02/16 13:33:16;;;;;;;;;;;8.70;96.80;;;;;;5082136;28;19917;-64
2022/02/16 13:35:50;;;;;;;;;;;8.70;96.80;;;;;;5066108;28;19908;-63
2022/02/16 13:38:28;;;;;;;;;;;8.70;96.50;;;;;;5082131;28;19908;-64
2022/02/16 13:41:05;;;;;;;;;;;8.70;96.60;;;;;;5081585;28;19958;-64
2022/02/16 13:43:56;;;;;;;;;;;8.80;96.40;;;;;;5081018;28;20199;-64
2022/02/16 13:46:23;;;;;;;;;;;8.80;96.30;;;;;;5082125;28;19920;-64
2022/02/16 13:48:49;;;;;;;;;;;8.80;96.20;;;;;;5082193;28;19915;-64
2022/02/16 13:51:16;;;;;;;;;;;8.90;96.00;;;;;;5081868;28;19908;-64
2022/02/16 13:53:49;;;;;;;;;;;8.90;95.80;;;;;;5082021;28;19916;-64
2022/02/16 13:56:19;;;;;;;;;;;8.90;96.00;;;;;;5081261;28;20252;-64
2022/02/16 13:58:45;;;;;;;;;;;8.90;96.10;;;;;;5080792;28;20107;-64
2022/02/16 14:01:15;;;;;;;;;;;8.90;96.20;;;;;;5081764;28;19909;-64
2022/02/16 14:03:44;;;;;;;;;;;9.00;96.00;;;;;;5081980;28;19908;-64
2022/02/16 14:06:13;;;;;;;;;;;9.00;95.80;;;;;;5081769;28;20085;-64
2022/02/16 14:08:42;;;;;;;;;;;9.00;95.80;;;;;;5081947;28;19924;-64
2022/02/16 14:11:17;;;;;;;;;;;9.10;95.80;;;;;;5081480;28;19909;-64
2022/02/16 14:13:42;;;;;;;;;;;9.10;95.60;;;;;;5080710;28;19979;-64
2022/02/16 14:16:08;;;;;;;;;;;9.10;95.70;;;;;;5081378;28;20118;-64
2022/02/16 14:18:34;;;;;;;;;;;9.10;95.60;;;;;;5081455;28;19980;-64
2022/02/16 14:21:03;;;;;;;;;;;9.10;95.50;;;;;;5081252;28;19914;-64
2022/02/16 14:23:30;;;;;;;;;;;9.30;95.30;;;;;;5081674;28;19908;-64
2022/02/16 14:25:58;;;;;;;;;;;9.30;95.30;;;;;;5081083;28;20157;-64
2022/02/16 14:28:27;;;;;;;;;;;9.30;95.20;;;;;;5081385;28;19908;-64
2022/02/16 14:30:53;;;;;;;;;;;9.30;94.90;;;;;;5081233;28;19908;-64
2022/02/16 14:33:19;;;;;;;;;;;9.30;95.10;;;;;;5081381;28;19916;-64
2022/02/16 14:35:44;;;;;;;;;;;9.40;95.10;;;;;;5081477;28;19975;-64